createdAt,value
2023-05-12T00:01:55.363Z,11.70
2023-05-12T00:04:22.170Z,11.70
2023-05-12T00:06:48.946Z,11.80
2023-05-12T00:09:15.676Z,11.50
2023-05-12T00:11:42.365Z,11.70
2023-05-12T00:14:09.337Z,11.60
2023-05-12T00:16:35.994Z,11.50
2023-05-12T00:19:02.755Z,11.50
2023-05-12T00:21:29.464Z,11.60
2023-05-12T00:23:56.362Z,11.50
2023-05-12T00:26:22.999Z,11.40
2023-05-12T00:28:49.625Z,11.40
2023-05-12T00:31:16.390Z,11.50
2023-05-12T00:33:43.051Z,11.60
2023-05-12T00:36:09.794Z,11.80
2023-05-12T00:38:37.431Z,11.60
2023-05-12T00:41:04.680Z,11.60
2023-05-12T00:43:32.073Z,11.70
2023-05-12T00:45:59.641Z,11.50
2023-05-12T00:48:26.916Z,11.50
2023-05-12T00:50:55.273Z,11.40
2023-05-12T00:53:22.120Z,11.60
2023-05-12T00:55:48.859Z,11.50
2023-05-12T00:58:15.735Z,11.50
2023-05-12T01:00:42.439Z,11.60
2023-05-12T01:03:09.270Z,11.50
2023-05-12T01:05:51.090Z,11.50
2023-05-12T01:08:19.057Z,11.60
2023-05-12T01:10:46.305Z,11.30
2023-05-12T01:13:12.978Z,11.50
2023-05-12T01:15:44.977Z,11.40
2023-05-12T01:18:12.629Z,11.50
2023-05-12T01:20:42.693Z,11.50
2023-05-12T01:23:10.024Z,11.50
2023-05-12T01:25:39.356Z,11.60
2023-05-12T01:28:07.092Z,11.60
2023-05-12T01:30:34.383Z,11.50
2023-05-12T01:33:01.662Z,11.50
2023-05-12T01:35:28.453Z,11.40
2023-05-12T01:37:55.015Z,11.40
2023-05-12T01:40:22.103Z,11.50
2023-05-12T01:42:49.653Z,11.40
2023-05-12T01:45:16.334Z,11.40
2023-05-12T01:47:43.123Z,11.50
2023-05-12T01:50:10.344Z,11.50
2023-05-12T01:52:36.983Z,11.50
2023-05-12T01:55:03.918Z,11.40
2023-05-12T01:57:30.554Z,11.50
2023-05-12T01:59:57.189Z,11.50
2023-05-12T02:02:23.864Z,11.40
2023-05-12T02:04:50.578Z,11.50
2023-05-12T02:07:17.430Z,11.30
2023-05-12T02:09:44.065Z,11.40
2023-05-12T02:12:10.705Z,11.30
2023-05-12T02:14:37.437Z,11.40
2023-05-12T02:17:04.641Z,11.40
2023-05-12T02:19:31.325Z,11.10
2023-05-12T02:21:57.949Z,11.20
2023-05-12T02:24:24.610Z,11.10
2023-05-12T02:26:51.342Z,11.10
2023-05-12T02:29:18.602Z,11.10
2023-05-12T02:31:45.742Z,11.00
2023-05-12T02:34:12.487Z,11.10
2023-05-12T02:36:39.230Z,11.00
2023-05-12T02:39:05.979Z,10.90
2023-05-12T02:41:32.601Z,10.90
2023-05-12T02:43:59.200Z,11.00
2023-05-12T02:46:26.085Z,11.00
2023-05-12T02:48:52.939Z,10.90
2023-05-12T02:51:19.534Z,11.00
2023-05-12T02:53:46.316Z,11.00
2023-05-12T02:56:13.059Z,10.90
2023-05-12T02:58:39.835Z,11.00
2023-05-12T03:01:11.159Z,10.90
2023-05-12T03:03:38.881Z,11.00
2023-05-12T03:06:06.465Z,11.00
2023-05-12T03:08:33.314Z,11.10
2023-05-12T03:11:00.880Z,11.10
2023-05-12T03:13:27.525Z,11.20
2023-05-12T03:15:54.507Z,11.20
2023-05-12T03:18:21.236Z,11.10
2023-05-12T03:20:48.060Z,11.10
2023-05-12T03:23:14.647Z,11.10
2023-05-12T03:25:41.239Z,11.00
2023-05-12T03:28:07.810Z,10.80
2023-05-12T03:30:34.498Z,10.80
2023-05-12T03:33:01.280Z,10.80
2023-05-12T03:35:27.999Z,10.70
2023-05-12T03:37:54.719Z,10.60
2023-05-12T03:40:21.627Z,10.60
2023-05-12T03:42:48.591Z,10.60
2023-05-12T03:45:15.544Z,10.60
2023-05-12T03:47:42.344Z,10.70
2023-05-12T03:50:09.585Z,10.60
2023-05-12T03:52:38.400Z,10.70
2023-05-12T03:55:06.933Z,10.70
2023-05-12T03:57:36.284Z,10.80
2023-05-12T04:00:06.527Z,10.90
2023-05-12T04:02:33.268Z,10.80
2023-05-12T04:05:00.031Z,10.90
2023-05-12T04:07:27.071Z,11.00
2023-05-12T04:09:53.816Z,11.00
2023-05-12T04:12:20.441Z,11.10
2023-05-12T04:14:48.158Z,11.00
2023-05-12T04:17:14.819Z,11.10
2023-05-12T04:19:41.506Z,11.10
2023-05-12T04:22:08.308Z,11.10
2023-05-12T04:24:37.215Z,11.00
2023-05-12T04:27:04.080Z,11.00
2023-05-12T04:29:30.643Z,10.90
2023-05-12T04:31:57.420Z,11.00
2023-05-12T04:34:24.107Z,11.10
2023-05-12T04:36:51.507Z,11.00
2023-05-12T04:39:18.594Z,11.00
2023-05-12T04:41:45.208Z,11.10
2023-05-12T04:44:11.974Z,11.10
2023-05-12T04:46:38.599Z,11.10
2023-05-12T04:49:05.346Z,11.20
2023-05-12T04:51:32.106Z,11.00
2023-05-12T04:53:58.840Z,11.20
2023-05-12T04:56:25.575Z,11.20
2023-05-12T04:58:52.397Z,11.20
2023-05-12T05:01:19.027Z,11.20
2023-05-12T05:03:45.979Z,11.10
2023-05-12T05:06:12.950Z,11.10
2023-05-12T05:08:39.524Z,11.00
2023-05-12T05:11:06.235Z,11.20
2023-05-12T05:13:32.828Z,11.20
2023-05-12T05:15:59.484Z,11.00
2023-05-12T05:18:26.850Z,11.10
2023-05-12T05:20:58.587Z,11.00
2023-05-12T05:23:26.188Z,11.10
2023-05-12T05:25:53.296Z,11.00
2023-05-12T05:28:19.910Z,11.10
2023-05-12T05:30:46.524Z,11.10
2023-05-12T05:33:13.512Z,11.00
2023-05-12T05:35:40.371Z,11.10
2023-05-12T05:38:07.168Z,11.00
2023-05-12T05:40:44.900Z,11.00
2023-05-12T05:43:18.696Z,10.90
2023-05-12T05:45:45.639Z,11.00
2023-05-12T05:48:12.377Z,11.10
2023-05-12T05:50:39.161Z,11.20
2023-05-12T05:53:06.644Z,11.20
2023-05-12T05:55:33.383Z,11.10
2023-05-12T05:58:00.160Z,11.10
2023-05-12T06:00:26.880Z,11.00
2023-05-12T06:02:53.669Z,11.00
2023-05-12T06:05:20.877Z,10.90
2023-05-12T06:07:47.719Z,11.00
2023-05-12T06:10:14.418Z,10.90
2023-05-12T06:12:41.463Z,10.90
2023-05-12T06:15:08.610Z,10.90
2023-05-12T06:17:35.527Z,10.90
2023-05-12T06:20:02.930Z,11.00
2023-05-12T06:22:29.576Z,11.00
2023-05-12T06:24:56.401Z,11.00
2023-05-12T06:27:23.223Z,10.90
2023-05-12T06:29:51.215Z,11.00
2023-05-12T06:32:18.018Z,11.00
2023-05-12T06:34:44.791Z,11.10
2023-05-12T06:37:11.435Z,11.00
2023-05-12T06:39:38.286Z,11.00
2023-05-12T06:42:05.259Z,11.10
2023-05-12T06:44:31.903Z,11.10
2023-05-12T06:46:59.015Z,11.10
2023-05-12T06:49:25.749Z,11.10
2023-05-12T06:51:52.492Z,11.20
2023-05-12T06:54:19.071Z,11.30
2023-05-12T06:56:45.781Z,11.30
2023-05-12T06:59:12.543Z,11.40
2023-05-12T07:01:39.200Z,11.50
2023-05-12T07:04:05.949Z,11.50
2023-05-12T07:06:34.499Z,11.50
2023-05-12T07:09:01.147Z,11.60
2023-05-12T07:11:27.710Z,11.60
2023-05-12T07:13:54.324Z,11.80
2023-05-12T07:16:21.076Z,11.90
2023-05-12T07:18:47.786Z,11.90
2023-05-12T07:21:14.854Z,12.00
2023-05-12T07:23:41.584Z,12.00
2023-05-12T07:26:08.929Z,11.90
2023-05-12T07:28:36.576Z,11.90
2023-05-12T07:31:04.083Z,11.80
2023-05-12T07:33:31.603Z,11.70
2023-05-12T07:35:58.444Z,11.80
2023-05-12T07:38:25.218Z,11.90
2023-05-12T07:40:51.915Z,11.80
2023-05-12T07:43:18.783Z,11.90
2023-05-12T07:45:46.231Z,11.90
2023-05-12T07:48:13.179Z,11.80
2023-05-12T07:50:40.011Z,11.90
2023-05-12T07:53:06.854Z,11.90
2023-05-12T07:55:33.992Z,11.90
2023-05-12T07:58:01.061Z,11.90
2023-05-12T08:00:27.961Z,11.80
2023-05-12T08:02:54.859Z,11.70
2023-05-12T08:05:22.201Z,11.70
2023-05-12T08:07:49.140Z,11.60
2023-05-12T08:10:15.908Z,11.60
2023-05-12T08:12:42.539Z,11.60
2023-05-12T08:15:10.058Z,11.70
2023-05-12T08:17:36.956Z,11.50
2023-05-12T08:20:05.129Z,11.60
2023-05-12T08:22:31.770Z,11.80
2023-05-12T08:24:58.484Z,12.00
2023-05-12T08:27:25.127Z,12.00
2023-05-12T08:29:51.747Z,12.10
2023-05-12T08:32:18.483Z,12.20
2023-05-12T08:34:45.252Z,12.20
2023-05-12T08:37:11.933Z,12.20
2023-05-12T08:39:38.716Z,12.30
2023-05-12T08:42:13.360Z,12.20
2023-05-12T08:44:40.912Z,12.30
2023-05-12T08:47:08.553Z,12.30
2023-05-12T08:49:39.111Z,12.30
2023-05-12T08:52:07.725Z,12.40
2023-05-12T08:54:48.491Z,12.50
2023-05-12T08:57:22.751Z,12.40
2023-05-12T08:59:49.939Z,12.50
2023-05-12T09:02:20.009Z,12.50
2023-05-12T09:04:46.700Z,12.60
2023-05-12T09:07:13.585Z,12.70
2023-05-12T09:09:44.041Z,12.90
2023-05-12T09:12:14.979Z,12.90
2023-05-12T09:14:43.872Z,13.00
2023-05-12T09:17:12.250Z,13.10
2023-05-12T09:19:38.883Z,13.10
2023-05-12T09:22:05.619Z,13.30
2023-05-12T09:24:41.337Z,13.30
2023-05-12T09:27:08.149Z,13.30
2023-05-12T09:29:42.544Z,13.40
2023-05-12T09:32:18.401Z,13.60
2023-05-12T09:34:45.272Z,13.60
2023-05-12T09:37:15.108Z,13.60
2023-05-12T09:39:42.063Z,13.60
2023-05-12T09:42:13.030Z,13.60
2023-05-12T09:44:41.185Z,13.60
2023-05-12T09:47:08.162Z,13.60
2023-05-12T09:49:34.795Z,13.70
2023-05-12T09:52:04.093Z,13.80
2023-05-12T09:54:32.186Z,14.00
2023-05-12T09:57:04.839Z,14.10
2023-05-12T09:59:33.869Z,14.40
2023-05-12T10:02:02.402Z,14.60
2023-05-12T10:04:32.772Z,14.70
2023-05-12T10:07:00.045Z,14.70
2023-05-12T10:09:33.873Z,14.90
2023-05-12T10:12:02.001Z,15.10
2023-05-12T10:14:29.442Z,15.10
2023-05-12T10:16:56.694Z,14.80
2023-05-12T10:19:25.781Z,14.50
2023-05-12T10:21:53.341Z,14.30
2023-05-12T10:24:21.618Z,14.30
2023-05-12T10:26:48.299Z,14.20
2023-05-12T10:29:15.480Z,14.10
2023-05-12T10:31:45.095Z,14.10
2023-05-12T10:34:18.615Z,14.10
2023-05-12T10:36:50.196Z,13.90
2023-05-12T10:39:16.888Z,13.80
2023-05-12T10:41:43.684Z,13.60
2023-05-12T10:44:10.841Z,13.50
2023-05-12T10:46:37.802Z,13.40
2023-05-12T10:49:08.957Z,13.40
2023-05-12T10:51:44.761Z,13.40
2023-05-12T10:54:18.683Z,13.40
2023-05-12T10:56:45.844Z,13.30
2023-05-12T10:59:19.213Z,13.30
2023-05-12T11:02:07.487Z,13.30
2023-05-12T11:04:42.070Z,13.20
2023-05-12T11:07:11.817Z,13.30
2023-05-12T11:09:52.224Z,13.40
2023-05-12T11:12:26.318Z,13.50
2023-05-12T11:14:53.219Z,13.60
2023-05-12T11:17:19.846Z,13.70
2023-05-12T11:19:50.699Z,13.80
2023-05-12T11:22:20.175Z,14.10
2023-05-12T11:24:47.844Z,14.30
2023-05-12T11:27:16.750Z,14.40
2023-05-12T11:29:45.067Z,14.50
2023-05-12T11:32:12.508Z,14.60
2023-05-12T11:34:39.517Z,14.80
2023-05-12T11:37:06.688Z,14.70
2023-05-12T11:39:33.424Z,14.90
2023-05-12T11:42:12.120Z,14.90
2023-05-12T11:44:49.876Z,14.70
2023-05-12T11:47:17.653Z,14.80
2023-05-12T11:49:49.765Z,14.90
2023-05-12T11:52:17.302Z,14.90
2023-05-12T11:55:00.757Z,15.20
2023-05-12T11:57:38.479Z,15.40
2023-05-12T12:00:07.854Z,15.30
2023-05-12T12:02:36.848Z,15.10
2023-05-12T12:05:03.810Z,15.10
2023-05-12T12:07:32.570Z,14.90
2023-05-12T12:10:10.110Z,14.90
2023-05-12T12:12:36.765Z,15.00
2023-05-12T12:15:03.594Z,14.90
2023-05-12T12:17:31.239Z,14.70
2023-05-12T12:19:58.486Z,14.60
2023-05-12T12:22:25.381Z,14.70
2023-05-12T12:24:52.073Z,14.60
2023-05-12T12:27:18.700Z,14.50
2023-05-12T12:29:45.287Z,14.40
2023-05-12T12:32:12.064Z,14.30
2023-05-12T12:34:38.742Z,14.60
2023-05-12T12:37:05.434Z,14.70
2023-05-12T12:39:32.039Z,14.80
2023-05-12T12:41:58.962Z,15.10
2023-05-12T12:44:25.549Z,15.10
2023-05-12T12:46:52.185Z,15.40
2023-05-12T12:49:18.768Z,15.60
2023-05-12T12:51:46.860Z,15.80
2023-05-12T12:54:14.770Z,16.00
2023-05-12T12:56:42.496Z,16.10
2023-05-12T12:59:09.394Z,16.10
2023-05-12T13:01:36.255Z,16.20
2023-05-12T13:04:02.904Z,16.10
2023-05-12T13:06:30.121Z,16.10
2023-05-12T13:08:57.120Z,16.10
2023-05-12T13:11:23.837Z,16.10
2023-05-12T13:13:50.459Z,15.90
2023-05-12T13:16:17.170Z,15.90
2023-05-12T13:18:44.111Z,15.80
2023-05-12T13:21:10.752Z,15.70
2023-05-12T13:23:37.341Z,15.70
2023-05-12T13:26:04.067Z,15.70
2023-05-12T13:28:30.849Z,15.70
2023-05-12T13:30:57.617Z,15.60
2023-05-12T13:33:24.289Z,15.60
2023-05-12T13:35:51.046Z,15.60
2023-05-12T13:38:18.279Z,15.50
2023-05-12T13:40:45.358Z,15.70
2023-05-12T13:43:12.506Z,15.80
2023-05-12T13:45:39.131Z,15.70
2023-05-12T13:48:05.989Z,15.70
2023-05-12T13:50:33.678Z,15.70
2023-05-12T13:53:00.783Z,15.70
2023-05-12T13:55:27.670Z,15.70
2023-05-12T13:57:54.463Z,15.70
2023-05-12T14:00:21.322Z,15.70
2023-05-12T14:02:48.021Z,15.70
2023-05-12T14:05:14.838Z,15.70
2023-05-12T14:07:42.540Z,15.80
2023-05-12T14:10:10.159Z,15.80
2023-05-12T14:12:41.172Z,15.90
2023-05-12T14:15:21.876Z,15.80
2023-05-12T14:17:53.076Z,15.80
2023-05-12T14:20:19.731Z,16.00
2023-05-12T14:22:46.359Z,15.90
2023-05-12T14:25:13.087Z,16.00
2023-05-12T14:27:39.656Z,16.00
2023-05-12T14:30:07.660Z,16.00
2023-05-12T14:32:34.440Z,16.00
2023-05-12T14:35:01.075Z,16.00
2023-05-12T14:37:27.680Z,16.10
2023-05-12T14:39:56.672Z,15.90
2023-05-12T14:42:23.721Z,16.10
2023-05-12T14:44:50.463Z,16.20
2023-05-12T14:47:17.174Z,16.20
2023-05-12T14:49:45.619Z,16.30
2023-05-12T14:52:12.468Z,16.30
2023-05-12T14:54:39.106Z,16.40
2023-05-12T14:57:05.899Z,16.60
2023-05-12T14:59:32.808Z,16.70
2023-05-12T15:01:59.563Z,16.70
2023-05-12T15:04:27.607Z,16.80
2023-05-12T15:06:54.229Z,16.70
2023-05-12T15:09:20.843Z,16.80
2023-05-12T15:11:48.037Z,16.70
2023-05-12T15:14:14.676Z,17.00
2023-05-12T15:16:41.750Z,17.00
2023-05-12T15:19:08.826Z,17.10
2023-05-12T15:21:36.626Z,17.20
2023-05-12T15:24:03.806Z,17.20
2023-05-12T15:26:34.267Z,17.40
2023-05-12T15:29:02.368Z,17.50
2023-05-12T15:31:29.645Z,17.60
2023-05-12T15:33:57.309Z,17.50
2023-05-12T15:36:24.195Z,17.50
2023-05-12T15:38:50.886Z,17.30
2023-05-12T15:41:17.762Z,17.20
2023-05-12T15:43:44.449Z,17.10
2023-05-12T15:46:11.672Z,17.00
2023-05-12T15:48:39.388Z,17.00
2023-05-12T15:51:06.508Z,16.80
2023-05-12T15:53:33.426Z,16.60
2023-05-12T15:56:04.492Z,16.40
2023-05-12T15:58:31.904Z,16.40
2023-05-12T16:00:59.122Z,16.30
2023-05-12T16:03:26.198Z,16.20
2023-05-12T16:05:53.114Z,16.20
2023-05-12T16:08:20.410Z,16.10
2023-05-12T16:10:47.125Z,16.10
2023-05-12T16:13:14.466Z,16.00
2023-05-12T16:15:41.084Z,15.90
2023-05-12T16:18:10.895Z,15.90
2023-05-12T16:20:38.822Z,15.70
2023-05-12T16:23:05.552Z,15.70
2023-05-12T16:25:32.183Z,15.50
2023-05-12T16:27:58.983Z,15.50
2023-05-12T16:30:26.405Z,15.50
2023-05-12T16:32:53.294Z,15.50
2023-05-12T16:35:20.679Z,15.50
2023-05-12T16:37:47.734Z,15.50
2023-05-12T16:40:15.193Z,15.60
2023-05-12T16:42:42.608Z,15.60
2023-05-12T16:45:10.825Z,15.60
2023-05-12T16:47:37.732Z,15.60
2023-05-12T16:50:04.912Z,15.70
2023-05-12T16:52:31.502Z,15.70
2023-05-12T16:54:58.133Z,15.70
2023-05-12T16:57:24.727Z,15.60
2023-05-12T16:59:51.652Z,15.60
2023-05-12T17:02:18.434Z,15.70
2023-05-12T17:04:45.183Z,15.70
2023-05-12T17:07:11.863Z,15.70
2023-05-12T17:09:38.500Z,15.60
2023-05-12T17:12:06.801Z,15.50
2023-05-12T17:14:34.932Z,15.50
2023-05-12T17:17:02.265Z,15.50
2023-05-12T17:19:29.129Z,15.50
2023-05-12T17:21:56.062Z,15.40
2023-05-12T17:24:22.740Z,15.40
2023-05-12T17:26:49.672Z,15.40
2023-05-12T17:29:16.954Z,15.40
2023-05-12T17:31:43.823Z,15.30
2023-05-12T17:34:10.654Z,15.30
2023-05-12T17:36:37.325Z,15.30
2023-05-12T17:39:04.248Z,15.20
2023-05-12T17:41:30.845Z,15.20
2023-05-12T17:43:57.540Z,15.10
2023-05-12T17:46:24.277Z,15.00
2023-05-12T17:48:50.923Z,15.00
2023-05-12T17:51:17.626Z,15.00
2023-05-12T17:53:44.386Z,14.90
2023-05-12T17:56:11.576Z,14.90
2023-05-12T17:58:38.509Z,14.90
2023-05-12T18:01:05.258Z,14.80
2023-05-12T18:03:32.016Z,14.70
2023-05-12T18:05:59.413Z,14.70
2023-05-12T18:08:27.057Z,14.70
2023-05-12T18:10:53.799Z,14.70
2023-05-12T18:13:20.408Z,14.60
2023-05-12T18:15:49.206Z,14.60
2023-05-12T18:18:16.013Z,14.50
2023-05-12T18:20:42.725Z,14.50
2023-05-12T18:23:09.342Z,14.50
2023-05-12T18:25:36.086Z,14.50
2023-05-12T18:28:02.823Z,14.50
2023-05-12T18:30:29.496Z,14.40
2023-05-12T18:32:56.247Z,14.40
2023-05-12T18:35:23.272Z,14.40
2023-05-12T18:37:50.172Z,14.40
2023-05-12T18:40:16.881Z,14.40
2023-05-12T18:42:44.667Z,14.30
2023-05-12T18:45:11.924Z,14.20
2023-05-12T18:47:39.256Z,14.30
2023-05-12T18:50:06.289Z,14.30
2023-05-12T18:52:32.925Z,14.20
2023-05-12T18:54:59.691Z,14.20
2023-05-12T18:57:26.478Z,14.20
2023-05-12T18:59:53.202Z,14.20
2023-05-12T19:02:19.802Z,14.10
2023-05-12T19:04:46.670Z,14.10
2023-05-12T19:07:15.325Z,14.10
2023-05-12T19:09:43.049Z,14.00
2023-05-12T19:12:11.569Z,14.10
2023-05-12T19:14:39.250Z,14.00
2023-05-12T19:17:07.043Z,14.00
2023-05-12T19:19:33.669Z,14.00
2023-05-12T19:22:00.956Z,13.90
2023-05-12T19:24:27.645Z,13.90
2023-05-12T19:26:54.445Z,13.90
2023-05-12T19:29:21.196Z,13.90
2023-05-12T19:31:48.071Z,13.90
2023-05-12T19:34:15.047Z,13.80
2023-05-12T19:36:41.710Z,13.80
2023-05-12T19:39:08.362Z,13.80
2023-05-12T19:41:35.042Z,13.80
2023-05-12T19:44:01.683Z,13.80
2023-05-12T19:46:29.427Z,13.70
2023-05-12T19:48:56.124Z,13.70
2023-05-12T19:51:22.773Z,13.70
2023-05-12T19:53:49.362Z,13.70
2023-05-12T19:56:16.017Z,13.70
2023-05-12T19:58:42.773Z,13.70
2023-05-12T20:01:10.393Z,13.60
2023-05-12T20:03:37.831Z,13.60
2023-05-12T20:06:04.844Z,13.50
2023-05-12T20:08:31.496Z,13.40
2023-05-12T20:10:58.163Z,13.40
2023-05-12T20:13:24.772Z,13.30
2023-05-12T20:15:51.633Z,13.30
2023-05-12T20:18:18.337Z,13.20
2023-05-12T20:20:44.932Z,13.20
2023-05-12T20:23:11.526Z,13.10
2023-05-12T20:25:38.358Z,13.10
2023-05-12T20:28:05.282Z,13.10
2023-05-12T20:30:31.975Z,13.00
2023-05-12T20:32:58.723Z,13.00
2023-05-12T20:35:25.651Z,13.00
2023-05-12T20:37:52.774Z,13.00
2023-05-12T20:40:19.698Z,13.00
2023-05-12T20:42:47.155Z,13.00
2023-05-12T20:45:14.649Z,12.90
2023-05-12T20:47:42.090Z,12.80
2023-05-12T20:50:09.975Z,12.90
2023-05-12T20:52:39.138Z,12.80
2023-05-12T20:55:07.026Z,12.80
2023-05-12T20:57:33.975Z,12.80
2023-05-12T21:00:00.620Z,12.80
2023-05-12T21:02:29.022Z,12.80
2023-05-12T21:04:56.027Z,12.80
2023-05-12T21:07:22.809Z,12.80
2023-05-12T21:09:49.536Z,12.80
2023-05-12T21:12:16.207Z,12.80
2023-05-12T21:14:45.003Z,12.80
2023-05-12T21:17:12.098Z,12.80
2023-05-12T21:19:39.983Z,12.80
2023-05-12T21:22:07.857Z,12.70
2023-05-12T21:24:34.683Z,12.80
2023-05-12T21:27:05.670Z,12.80
2023-05-12T21:29:33.304Z,12.80
2023-05-12T21:32:00.831Z,12.70
2023-05-12T21:34:27.828Z,12.70
2023-05-12T21:36:54.836Z,12.70
2023-05-12T21:39:21.971Z,12.70
2023-05-12T21:41:48.929Z,12.80
2023-05-12T21:44:16.178Z,12.80
2023-05-12T21:46:43.174Z,12.80
2023-05-12T21:49:10.216Z,12.80
2023-05-12T21:51:36.944Z,12.70
2023-05-12T21:54:03.769Z,12.70
2023-05-12T21:56:30.501Z,12.70
2023-05-12T21:58:57.138Z,12.70
2023-05-12T22:01:23.820Z,12.70
2023-05-12T22:03:50.625Z,12.70
2023-05-12T22:06:17.345Z,12.80
2023-05-12T22:08:44.623Z,12.80
2023-05-12T22:11:11.421Z,12.80
2023-05-12T22:13:38.051Z,12.80
2023-05-12T22:16:04.958Z,12.80
2023-05-12T22:18:31.951Z,12.80
2023-05-12T22:20:58.927Z,12.80
2023-05-12T22:23:25.677Z,12.80
2023-05-12T22:25:52.478Z,12.90
2023-05-12T22:28:19.128Z,12.90
2023-05-12T22:30:45.861Z,12.90
2023-05-12T22:33:12.471Z,12.80
2023-05-12T22:35:39.189Z,12.80
2023-05-12T22:38:05.803Z,12.70
2023-05-12T22:40:33.747Z,12.70
2023-05-12T22:43:00.401Z,12.70
2023-05-12T22:45:27.208Z,12.60
2023-05-12T22:47:54.295Z,12.60
2023-05-12T22:50:21.431Z,12.60
2023-05-12T22:52:48.272Z,12.60
2023-05-12T22:55:14.935Z,12.60
2023-05-12T22:57:43.624Z,12.50
2023-05-12T23:00:11.480Z,12.50
2023-05-12T23:02:38.280Z,12.40
2023-05-12T23:05:05.301Z,12.40
2023-05-12T23:07:31.924Z,12.40
2023-05-12T23:09:58.528Z,12.50
2023-05-12T23:12:25.732Z,12.50
2023-05-12T23:14:52.494Z,12.60
2023-05-12T23:17:20.755Z,12.60
2023-05-12T23:19:47.421Z,12.60
2023-05-12T23:22:14.066Z,12.70
2023-05-12T23:24:40.685Z,12.70
2023-05-12T23:27:07.269Z,12.70
2023-05-12T23:29:34.628Z,12.70
2023-05-12T23:32:01.532Z,12.80
2023-05-12T23:34:28.295Z,12.90
2023-05-12T23:36:54.932Z,12.90
2023-05-12T23:39:21.698Z,13.00
2023-05-12T23:41:49.452Z,13.10
2023-05-12T23:44:16.322Z,13.00
2023-05-12T23:46:42.985Z,13.00
2023-05-12T23:49:09.893Z,13.10
2023-05-12T23:51:36.508Z,13.10
2023-05-12T23:54:03.139Z,13.10
2023-05-12T23:56:29.871Z,13.10
2023-05-12T23:58:56.548Z,13.20
